sensor_id;sensor_type;location;lat;lon;timestamp;pressure;altitude;pressure_sealevel;temperature;humidity
25238;BME280;13185;50.872;5.306;2022-07-29T00:00:49;101216.16;;;19.61;71.82
25238;BME280;13185;50.872;5.306;2022-07-29T00:03:15;101213.00;;;19.56;71.21
25238;BME280;13185;50.872;5.306;2022-07-29T00:05:41;101212.84;;;19.48;71.52
25238;BME280;13185;50.872;5.306;2022-07-29T00:08:08;101217.03;;;19.42;72.62
25238;BME280;13185;50.872;5.306;2022-07-29T00:10:34;101203.16;;;19.36;73.65
25238;BME280;13185;50.872;5.306;2022-07-29T00:13:00;101210.47;;;19.25;75.81
25238;BME280;13185;50.872;5.306;2022-07-29T00:15:25;101204.78;;;19.19;76.69
25238;BME280;13185;50.872;5.306;2022-07-29T00:17:51;101200.63;;;19.15;77.61
25238;BME280;13185;50.872;5.306;2022-07-29T00:20:16;101195.38;;;19.03;77.76
25238;BME280;13185;50.872;5.306;2022-07-29T00:22:42;101196.69;;;18.99;78.71
25238;BME280;13185;50.872;5.306;2022-07-29T00:25:07;101181.09;;;18.92;78.52
25238;BME280;13185;50.872;5.306;2022-07-29T00:27:34;101185.97;;;18.88;79.43
25238;BME280;13185;50.872;5.306;2022-07-29T00:30:00;101188.94;;;18.85;78.97
25238;BME280;13185;50.872;5.306;2022-07-29T00:32:26;101180.25;;;18.82;79.68
25238;BME280;13185;50.872;5.306;2022-07-29T00:34:51;101183.81;;;18.72;79.18
25238;BME280;13185;50.872;5.306;2022-07-29T00:37:35;101181.41;;;18.69;79.92
25238;BME280;13185;50.872;5.306;2022-07-29T00:40:01;101179.38;;;18.62;79.74
25238;BME280;13185;50.872;5.306;2022-07-29T00:42:26;101180.66;;;18.58;79.80
25238;BME280;13185;50.872;5.306;2022-07-29T00:44:52;101178.09;;;18.56;79.87
25238;BME280;13185;50.872;5.306;2022-07-29T00:47:18;101176.66;;;18.52;79.24
25238;BME280;13185;50.872;5.306;2022-07-29T00:49:43;101183.22;;;18.50;78.88
25238;BME280;13185;50.872;5.306;2022-07-29T00:52:10;101189.81;;;18.47;79.51
25238;BME280;13185;50.872;5.306;2022-07-29T00:54:37;101185.38;;;18.46;79.38
25238;BME280;13185;50.872;5.306;2022-07-29T00:57:05;101188.38;;;18.43;79.43
25238;BME280;13185;50.872;5.306;2022-07-29T00:59:31;101186.50;;;18.43;79.18
25238;BME280;13185;50.872;5.306;2022-07-29T01:01:57;101182.06;;;18.42;78.96
25238;BME280;13185;50.872;5.306;2022-07-29T01:04:22;101174.94;;;18.41;79.05
25238;BME280;13185;50.872;5.306;2022-07-29T01:06:48;101173.06;;;18.42;78.75
25238;BME280;13185;50.872;5.306;2022-07-29T01:09:15;101168.66;;;18.41;78.69
25238;BME280;13185;50.872;5.306;2022-07-29T01:11:43;101163.50;;;18.38;79.01
25238;BME280;13185;50.872;5.306;2022-07-29T01:14:09;101156.63;;;18.34;78.99
25238;BME280;13185;50.872;5.306;2022-07-29T01:17:02;101165.06;;;18.31;79.21
25238;BME280;13185;50.872;5.306;2022-07-29T01:25:19;101179.34;;;18.23;80.27
25238;BME280;13185;50.872;5.306;2022-07-29T01:30:22;101186.59;;;18.13;80.96
25238;BME280;13185;50.872;5.306;2022-07-29T01:32:50;101197.34;;;18.05;81.01
25238;BME280;13185;50.872;5.306;2022-07-29T01:35:23;101196.03;;;17.99;81.23
25238;BME280;13185;50.872;5.306;2022-07-29T01:37:55;101192.56;;;17.87;81.26
25238;BME280;13185;50.872;5.306;2022-07-29T01:40:48;101182.84;;;17.85;81.79
25238;BME280;13185;50.872;5.306;2022-07-29T01:43:16;101170.00;;;17.87;82.10
25238;BME280;13185;50.872;5.306;2022-07-29T01:45:46;101162.28;;;17.92;82.51
25238;BME280;13185;50.872;5.306;2022-07-29T01:48:18;101160.56;;;17.91;82.56
25238;BME280;13185;50.872;5.306;2022-07-29T01:51:04;101144.44;;;17.89;83.35
25238;BME280;13185;50.872;5.306;2022-07-29T01:53:35;101141.00;;;17.87;83.08
25238;BME280;13185;50.872;5.306;2022-07-29T01:56:03;101132.31;;;17.84;83.77
25238;BME280;13185;50.872;5.306;2022-07-29T01:58:31;101134.28;;;17.82;84.57
25238;BME280;13185;50.872;5.306;2022-07-29T02:00:58;101119.13;;;17.79;84.81
25238;BME280;13185;50.872;5.306;2022-07-29T02:03:25;101108.56;;;17.76;85.21
25238;BME280;13185;50.872;5.306;2022-07-29T02:05:53;101112.44;;;17.74;84.91
25238;BME280;13185;50.872;5.306;2022-07-29T02:08:21;101112.69;;;17.71;84.12
25238;BME280;13185;50.872;5.306;2022-07-29T02:10:48;101116.50;;;17.68;83.70
25238;BME280;13185;50.872;5.306;2022-07-29T02:13:15;101118.81;;;17.63;83.56
25238;BME280;13185;50.872;5.306;2022-07-29T02:15:42;101112.22;;;17.56;83.86
25238;BME280;13185;50.872;5.306;2022-07-29T02:18:19;101114.78;;;17.57;83.52
25238;BME280;13185;50.872;5.306;2022-07-29T02:20:49;101109.34;;;17.57;84.10
25238;BME280;13185;50.872;5.306;2022-07-29T02:23:19;101114.50;;;17.60;84.14
25238;BME280;13185;50.872;5.306;2022-07-29T02:25:48;101113.53;;;17.62;84.14
25238;BME280;13185;50.872;5.306;2022-07-29T02:28:15;101110.53;;;17.65;84.17
25238;BME280;13185;50.872;5.306;2022-07-29T02:30:42;101118.66;;;17.65;84.40
25238;BME280;13185;50.872;5.306;2022-07-29T02:33:10;101124.78;;;17.67;84.77
25238;BME280;13185;50.872;5.306;2022-07-29T02:35:40;101125.66;;;17.67;85.01
25238;BME280;13185;50.872;5.306;2022-07-29T02:38:08;101133.66;;;17.69;85.32
25238;BME280;13185;50.872;5.306;2022-07-29T02:40:54;101138.09;;;17.70;84.54
25238;BME280;13185;50.872;5.306;2022-07-29T02:43:22;101137.25;;;17.69;84.99
25238;BME280;13185;50.872;5.306;2022-07-29T02:45:51;101131.22;;;17.66;84.98
25238;BME280;13185;50.872;5.306;2022-07-29T02:48:22;101126.78;;;17.65;85.21
25238;BME280;13185;50.872;5.306;2022-07-29T02:51:01;101129.19;;;17.58;85.68
25238;BME280;13185;50.872;5.306;2022-07-29T02:53:33;101125.75;;;17.56;85.77
25238;BME280;13185;50.872;5.306;2022-07-29T02:56:06;101119.34;;;17.57;86.14
25238;BME280;13185;50.872;5.306;2022-07-29T02:58:34;101121.06;;;17.58;86.00
25238;BME280;13185;50.872;5.306;2022-07-29T03:01:19;101121.91;;;17.58;85.96
25238;BME280;13185;50.872;5.306;2022-07-29T03:03:46;101128.19;;;17.59;86.08
25238;BME280;13185;50.872;5.306;2022-07-29T03:06:13;101110.06;;;17.59;85.55
25238;BME280;13185;50.872;5.306;2022-07-29T03:08:40;101128.78;;;17.63;85.45
25238;BME280;13185;50.872;5.306;2022-07-29T03:11:07;101128.91;;;17.61;85.45
25238;BME280;13185;50.872;5.306;2022-07-29T03:13:33;101132.63;;;17.60;85.14
25238;BME280;13185;50.872;5.306;2022-07-29T03:16:00;101129.91;;;17.60;85.01
25238;BME280;13185;50.872;5.306;2022-07-29T03:18:26;101123.63;;;17.59;85.53
25238;BME280;13185;50.872;5.306;2022-07-29T03:20:52;101123.75;;;17.58;86.27
25238;BME280;13185;50.872;5.306;2022-07-29T03:23:21;101130.91;;;17.59;85.87
25238;BME280;13185;50.872;5.306;2022-07-29T03:25:52;101121.91;;;17.58;86.28
25238;BME280;13185;50.872;5.306;2022-07-29T03:28:18;101132.75;;;17.58;86.89
25238;BME280;13185;50.872;5.306;2022-07-29T03:30:44;101132.91;;;17.57;86.89
25238;BME280;13185;50.872;5.306;2022-07-29T03:33:10;101128.75;;;17.53;87.26
25238;BME280;13185;50.872;5.306;2022-07-29T03:35:36;101129.00;;;17.50;87.74
25238;BME280;13185;50.872;5.306;2022-07-29T03:38:02;101136.19;;;17.51;88.03
25238;BME280;13185;50.872;5.306;2022-07-29T03:40:32;101136.19;;;17.51;88.71
25238;BME280;13185;50.872;5.306;2022-07-29T03:43:00;101128.59;;;17.45;89.75
25238;BME280;13185;50.872;5.306;2022-07-29T03:45:28;101130.56;;;17.43;89.71
25238;BME280;13185;50.872;5.306;2022-07-29T03:48:02;101129.44;;;17.45;89.59
25238;BME280;13185;50.872;5.306;2022-07-29T03:50:30;101127.59;;;17.46;89.36
25238;BME280;13185;50.872;5.306;2022-07-29T03:52:56;101126.88;;;17.44;88.75
25238;BME280;13185;50.872;5.306;2022-07-29T03:55:21;101129.59;;;17.44;88.43
25238;BME280;13185;50.872;5.306;2022-07-29T03:57:48;101126.88;;;17.44;89.30
25238;BME280;13185;50.872;5.306;2022-07-29T04:00:15;101131.28;;;17.45;89.53
25238;BME280;13185;50.872;5.306;2022-07-29T04:02:41;101123.31;;;17.43;89.52
25238;BME280;13185;50.872;5.306;2022-07-29T04:05:14;101125.28;;;17.41;89.39
25238;BME280;13185;50.872;5.306;2022-07-29T04:07:42;101132.44;;;17.42;89.05
25238;BME280;13185;50.872;5.306;2022-07-29T04:10:08;101138.00;;;17.41;89.52
25238;BME280;13185;50.872;5.306;2022-07-29T04:12:34;101132.56;;;17.41;88.97
25238;BME280;13185;50.872;5.306;2022-07-29T04:15:01;101144.38;;;17.40;88.50
25238;BME280;13185;50.872;5.306;2022-07-29T04:17:26;101151.56;;;17.41;88.46
25238;BME280;13185;50.872;5.306;2022-07-29T04:19:52;101158.78;;;17.40;87.70
25238;BME280;13185;50.872;5.306;2022-07-29T04:22:17;101162.50;;;17.39;87.83
25238;BME280;13185;50.872;5.306;2022-07-29T04:24:43;101156.22;;;17.39;87.48
25238;BME280;13185;50.872;5.306;2022-07-29T04:27:08;101161.50;;;17.40;87.20
25238;BME280;13185;50.872;5.306;2022-07-29T04:29:33;101157.84;;;17.41;87.53
25238;BME280;13185;50.872;5.306;2022-07-29T04:31:59;101164.13;;;17.42;88.13
25238;BME280;13185;50.872;5.306;2022-07-29T04:34:24;101171.25;;;17.43;87.94
25238;BME280;13185;50.872;5.306;2022-07-29T04:36:50;101178.78;;;17.39;87.58
25238;BME280;13185;50.872;5.306;2022-07-29T04:39:15;101179.19;;;17.35;87.57
25238;BME280;13185;50.872;5.306;2022-07-29T04:41:43;101182.19;;;17.31;87.27
25238;BME280;13185;50.872;5.306;2022-07-29T04:44:08;101184.03;;;17.31;87.61
25238;BME280;13185;50.872;5.306;2022-07-29T04:46:35;101179.84;;;17.27;87.95
25238;BME280;13185;50.872;5.306;2022-07-29T04:49:02;101183.56;;;17.26;88.02
25238;BME280;13185;50.872;5.306;2022-07-29T04:51:27;101181.13;;;17.23;88.23
25238;BME280;13185;50.872;5.306;2022-07-29T04:53:53;101188.53;;;17.21;88.10
25238;BME280;13185;50.872;5.306;2022-07-29T04:56:18;101187.94;;;17.17;88.18
25238;BME280;13185;50.872;5.306;2022-07-29T04:58:43;101181.94;;;17.14;88.43
25238;BME280;13185;50.872;5.306;2022-07-29T05:01:09;101189.34;;;17.12;89.01
25238;BME280;13185;50.872;5.306;2022-07-29T05:03:34;101180.50;;;17.10;88.51
25238;BME280;13185;50.872;5.306;2022-07-29T05:06:00;101192.28;;;17.09;89.05
25238;BME280;13185;50.872;5.306;2022-07-29T05:08:25;101197.13;;;17.05;89.02
25238;BME280;13185;50.872;5.306;2022-07-29T05:10:51;101195.41;;;17.04;89.15
25238;BME280;13185;50.872;5.306;2022-07-29T05:13:16;101195.56;;;17.02;89.55
25238;BME280;13185;50.872;5.306;2022-07-29T05:15:42;101201.97;;;17.01;89.71
25238;BME280;13185;50.872;5.306;2022-07-29T05:18:07;101209.38;;;16.99;90.15
25238;BME280;13185;50.872;5.306;2022-07-29T05:20:33;101207.91;;;16.95;90.06
25238;BME280;13185;50.872;5.306;2022-07-29T05:23:01;101208.91;;;16.94;89.98
25238;BME280;13185;50.872;5.306;2022-07-29T05:25:27;101209.91;;;16.93;90.19
25238;BME280;13185;50.872;5.306;2022-07-29T05:27:53;101206.34;;;16.93;90.51
25238;BME280;13185;50.872;5.306;2022-07-29T05:30:19;101207.19;;;16.93;90.54
25238;BME280;13185;50.872;5.306;2022-07-29T05:32:44;101205.47;;;16.92;90.59
25238;BME280;13185;50.872;5.306;2022-07-29T05:35:12;101207.06;;;16.95;90.65
25238;BME280;13185;50.872;5.306;2022-07-29T05:37:38;101209.25;;;17.01;90.15
25238;BME280;13185;50.872;5.306;2022-07-29T05:40:04;101198.84;;;17.06;90.19
25238;BME280;13185;50.872;5.306;2022-07-29T05:42:29;101208.91;;;17.15;90.11
25238;BME280;13185;50.872;5.306;2022-07-29T05:44:55;101199.81;;;17.26;89.83
25238;BME280;13185;50.872;5.306;2022-07-29T05:47:22;101198.88;;;17.37;89.66
25238;BME280;13185;50.872;5.306;2022-07-29T05:49:47;101211.22;;;17.50;89.21
25238;BME280;13185;50.872;5.306;2022-07-29T05:52:13;101203.97;;;17.60;88.48
25238;BME280;13185;50.872;5.306;2022-07-29T05:54:39;101203.66;;;17.75;88.00
25238;BME280;13185;50.872;5.306;2022-07-29T05:57:05;101212.94;;;17.82;87.41
25238;BME280;13185;50.872;5.306;2022-07-29T05:59:31;101217.44;;;17.93;86.97
25238;BME280;13185;50.872;5.306;2022-07-29T06:01:57;101219.28;;;18.02;86.56
25238;BME280;13185;50.872;5.306;2022-07-29T06:04:22;101222.16;;;18.00;86.12
25238;BME280;13185;50.872;5.306;2022-07-29T06:06:48;101226.72;;;18.00;85.56
25238;BME280;13185;50.872;5.306;2022-07-29T06:09:13;101225.16;;;17.97;85.59
25238;BME280;13185;50.872;5.306;2022-07-29T06:11:40;101227.16;;;17.95;85.66
25238;BME280;13185;50.872;5.306;2022-07-29T06:14:05;101225.59;;;17.93;85.79
25238;BME280;13185;50.872;5.306;2022-07-29T06:16:31;101230.13;;;17.92;85.83
25238;BME280;13185;50.872;5.306;2022-07-29T06:18:56;101228.41;;;17.91;85.60
25238;BME280;13185;50.872;5.306;2022-07-29T06:21:22;101229.41;;;17.90;85.60
25238;BME280;13185;50.872;5.306;2022-07-29T06:23:47;101228.53;;;17.89;85.90
25238;BME280;13185;50.872;5.306;2022-07-29T06:26:13;101236.69;;;17.89;86.05
25238;BME280;13185;50.872;5.306;2022-07-29T06:28:38;101237.88;;;17.97;86.39
25238;BME280;13185;50.872;5.306;2022-07-29T06:31:05;101228.31;;;18.12;86.32
25238;BME280;13185;50.872;5.306;2022-07-29T06:33:30;101229.22;;;18.32;85.41
25238;BME280;13185;50.872;5.306;2022-07-29T06:35:56;101225.69;;;18.51;84.73
25238;BME280;13185;50.872;5.306;2022-07-29T06:38:22;101227.44;;;18.71;83.99
25238;BME280;13185;50.872;5.306;2022-07-29T06:40:47;101232.16;;;18.88;82.79
25238;BME280;13185;50.872;5.306;2022-07-29T06:43:26;101235.13;;;19.04;81.77
25238;BME280;13185;50.872;5.306;2022-07-29T06:45:52;101237.13;;;19.12;80.88
25238;BME280;13185;50.872;5.306;2022-07-29T06:48:17;101236.41;;;19.29;80.75
25238;BME280;13185;50.872;5.306;2022-07-29T06:50:43;101237.22;;;19.49;80.73
25238;BME280;13185;50.872;5.306;2022-07-29T06:53:08;101235.59;;;19.66;79.60
25238;BME280;13185;50.872;5.306;2022-07-29T06:55:34;101239.44;;;19.73;79.18
25238;BME280;13185;50.872;5.306;2022-07-29T06:57:59;101245.31;;;19.69;77.85
25238;BME280;13185;50.872;5.306;2022-07-29T07:00:25;101236.31;;;19.58;77.84
25238;BME280;13185;50.872;5.306;2022-07-29T07:02:50;101243.78;;;19.56;77.85
25238;BME280;13185;50.872;5.306;2022-07-29T07:05:16;101247.78;;;19.62;78.21
25238;BME280;13185;50.872;5.306;2022-07-29T07:07:41;101258.63;;;19.72;77.81
25238;BME280;13185;50.872;5.306;2022-07-29T07:10:07;101259.69;;;19.88;77.59
25238;BME280;13185;50.872;5.306;2022-07-29T07:12:33;101258.59;;;20.09;76.64
25238;BME280;13185;50.872;5.306;2022-07-29T07:14:58;101260.47;;;20.36;76.63
25238;BME280;13185;50.872;5.306;2022-07-29T07:17:24;101260.22;;;20.57;74.99
25238;BME280;13185;50.872;5.306;2022-07-29T07:19:49;101252.91;;;20.75;75.60
25238;BME280;13185;50.872;5.306;2022-07-29T07:22:15;101251.72;;;20.95;74.22
25238;BME280;13185;50.872;5.306;2022-07-29T07:24:40;101252.38;;;21.15;72.83
25238;BME280;13185;50.872;5.306;2022-07-29T07:27:06;101256.81;;;21.34;72.58
25238;BME280;13185;50.872;5.306;2022-07-29T07:29:31;101256.19;;;21.40;70.88
25238;BME280;13185;50.872;5.306;2022-07-29T07:31:57;101260.34;;;21.52;71.69
25238;BME280;13185;50.872;5.306;2022-07-29T07:34:23;101262.66;;;21.65;70.28
25238;BME280;13185;50.872;5.306;2022-07-29T07:36:48;101260.13;;;21.72;69.63
25238;BME280;13185;50.872;5.306;2022-07-29T07:39:14;101258.31;;;21.80;70.84
25238;BME280;13185;50.872;5.306;2022-07-29T07:41:39;101257.84;;;21.93;69.89
25238;BME280;13185;50.872;5.306;2022-07-29T07:44:04;101260.81;;;22.00;69.29
25238;BME280;13185;50.872;5.306;2022-07-29T07:46:31;101267.03;;;22.10;68.40
25238;BME280;13185;50.872;5.306;2022-07-29T07:48:57;101264.44;;;22.08;67.55
25238;BME280;13185;50.872;5.306;2022-07-29T07:51:23;101263.09;;;22.12;67.63
25238;BME280;13185;50.872;5.306;2022-07-29T07:53:48;101263.28;;;22.19;67.31
25238;BME280;13185;50.872;5.306;2022-07-29T07:56:16;101265.16;;;22.18;66.71
25238;BME280;13185;50.872;5.306;2022-07-29T07:58:41;101255.94;;;22.19;66.61
25238;BME280;13185;50.872;5.306;2022-07-29T08:01:08;101260.91;;;22.24;66.78
25238;BME280;13185;50.872;5.306;2022-07-29T08:03:33;101257.69;;;22.29;67.14
25238;BME280;13185;50.872;5.306;2022-07-29T08:05:59;101252.06;;;22.30;66.79
25238;BME280;13185;50.872;5.306;2022-07-29T08:08:24;101263.16;;;22.29;67.60
25238;BME280;13185;50.872;5.306;2022-07-29T08:10:50;101263.28;;;22.19;67.03
25238;BME280;13185;50.872;5.306;2022-07-29T08:13:20;101267.88;;;22.10;67.17
25238;BME280;13185;50.872;5.306;2022-07-29T08:15:46;101269.13;;;21.98;67.52
25238;BME280;13185;50.872;5.306;2022-07-29T08:18:13;101270.81;;;21.91;68.12
25238;BME280;13185;50.872;5.306;2022-07-29T08:20:39;101266.06;;;21.93;69.16
25238;BME280;13185;50.872;5.306;2022-07-29T08:23:06;101273.38;;;21.93;68.26
25238;BME280;13185;50.872;5.306;2022-07-29T08:25:35;101279.03;;;21.91;67.97
25238;BME280;13185;50.872;5.306;2022-07-29T08:28:00;101277.81;;;21.94;69.48
25238;BME280;13185;50.872;5.306;2022-07-29T08:30:26;101285.84;;;21.95;68.62
25238;BME280;13185;50.872;5.306;2022-07-29T08:32:51;101281.78;;;21.99;69.38
25238;BME280;13185;50.872;5.306;2022-07-29T08:35:22;101280.91;;;21.99;68.86
25238;BME280;13185;50.872;5.306;2022-07-29T08:37:48;101281.25;;;21.96;68.91
25238;BME280;13185;50.872;5.306;2022-07-29T08:40:13;101283.50;;;22.00;69.47
25238;BME280;13185;50.872;5.306;2022-07-29T08:42:40;101286.59;;;22.05;69.47
25238;BME280;13185;50.872;5.306;2022-07-29T08:45:09;101287.69;;;22.12;69.11
25238;BME280;13185;50.872;5.306;2022-07-29T08:47:35;101287.38;;;22.24;71.85
25238;BME280;13185;50.872;5.306;2022-07-29T08:50:05;101293.72;;;22.24;68.14
25238;BME280;13185;50.872;5.306;2022-07-29T08:52:33;101289.91;;;22.17;67.82
25238;BME280;13185;50.872;5.306;2022-07-29T08:55:01;101298.44;;;22.14;68.09
25238;BME280;13185;50.872;5.306;2022-07-29T08:57:27;101297.63;;;22.22;69.58
25238;BME280;13185;50.872;5.306;2022-07-29T08:59:54;101291.13;;;22.23;67.92
25238;BME280;13185;50.872;5.306;2022-07-29T09:02:21;101295.75;;;22.22;68.15
25238;BME280;13185;50.872;5.306;2022-07-29T09:04:47;101288.06;;;22.26;68.52
25238;BME280;13185;50.872;5.306;2022-07-29T09:07:17;101297.16;;;22.34;69.05
25238;BME280;13185;50.872;5.306;2022-07-29T09:09:43;101292.34;;;22.28;67.28
25238;BME280;13185;50.872;5.306;2022-07-29T09:12:12;101285.00;;;22.21;67.29
25238;BME280;13185;50.872;5.306;2022-07-29T09:14:38;101291.97;;;22.15;67.84
25238;BME280;13185;50.872;5.306;2022-07-29T09:17:04;101280.34;;;22.13;67.52
25238;BME280;13185;50.872;5.306;2022-07-29T09:19:32;101281.41;;;22.20;68.52
25238;BME280;13185;50.872;5.306;2022-07-29T09:22:00;101279.06;;;22.33;69.34
25238;BME280;13185;50.872;5.306;2022-07-29T09:27:01;101285.56;;;22.48;68.05
25238;BME280;13185;50.872;5.306;2022-07-29T09:29:27;101278.78;;;22.53;68.03
25238;BME280;13185;50.872;5.306;2022-07-29T09:31:54;101284.59;;;22.58;67.72
25238;BME280;13185;50.872;5.306;2022-07-29T09:34:27;101289.91;;;22.67;68.25
25238;BME280;13185;50.872;5.306;2022-07-29T09:36:55;101290.06;;;22.66;66.88
25238;BME280;13185;50.872;5.306;2022-07-29T09:39:31;101295.72;;;22.64;67.47
25238;BME280;13185;50.872;5.306;2022-07-29T09:41:59;101300.88;;;22.75;69.10
25238;BME280;13185;50.872;5.306;2022-07-29T09:44:25;101301.09;;;22.98;68.89
25238;BME280;13185;50.872;5.306;2022-07-29T09:46:59;101300.59;;;23.11;69.07
25238;BME280;13185;50.872;5.306;2022-07-29T09:49:35;101293.91;;;23.22;68.14
25238;BME280;13185;50.872;5.306;2022-07-29T09:52:07;101292.22;;;23.21;66.14
25238;BME280;13185;50.872;5.306;2022-07-29T09:54:33;101309.81;;;23.10;65.97
25238;BME280;13185;50.872;5.306;2022-07-29T09:57:04;101298.53;;;23.05;66.05
25238;BME280;13185;50.872;5.306;2022-07-29T09:59:30;101298.88;;;23.10;66.54
25238;BME280;13185;50.872;5.306;2022-07-29T10:01:56;101296.50;;;23.15;66.94
25238;BME280;13185;50.872;5.306;2022-07-29T10:04:21;101301.09;;;23.31;66.57
25238;BME280;13185;50.872;5.306;2022-07-29T10:06:58;101291.84;;;23.32;64.79
25238;BME280;13185;50.872;5.306;2022-07-29T10:09:24;101294.44;;;23.25;64.44
25238;BME280;13185;50.872;5.306;2022-07-29T10:12:22;101291.19;;;23.22;65.45
25238;BME280;13185;50.872;5.306;2022-07-29T10:14:48;101287.06;;;23.34;65.82
25238;BME280;13185;50.872;5.306;2022-07-29T10:17:15;101289.63;;;23.44;65.61
25238;BME280;13185;50.872;5.306;2022-07-29T10:19:41;101289.63;;;23.52;66.06
25238;BME280;13185;50.872;5.306;2022-07-29T10:22:10;101288.78;;;23.59;64.62
25238;BME280;13185;50.872;5.306;2022-07-29T10:24:37;101293.91;;;23.63;63.54
25238;BME280;13185;50.872;5.306;2022-07-29T10:27:04;101283.13;;;23.61;62.27
25238;BME280;13185;50.872;5.306;2022-07-29T10:29:30;101284.47;;;23.65;61.86
25238;BME280;13185;50.872;5.306;2022-07-29T10:32:10;101287.75;;;23.69;61.11
25238;BME280;13185;50.872;5.306;2022-07-29T10:35:13;101284.28;;;23.75;61.58
25238;BME280;13185;50.872;5.306;2022-07-29T10:40:56;101286.88;;;23.76;59.57
25238;BME280;13185;50.872;5.306;2022-07-29T10:43:46;101285.13;;;23.83;60.25
25238;BME280;13185;50.872;5.306;2022-07-29T10:46:12;101282.75;;;23.88;59.88
25238;BME280;13185;50.872;5.306;2022-07-29T10:49:17;101279.81;;;23.98;60.42
25238;BME280;13185;50.872;5.306;2022-07-29T10:54:18;101285.66;;;24.26;59.11
25238;BME280;13185;50.872;5.306;2022-07-29T10:56:44;101289.63;;;24.32;58.25
25238;BME280;13185;50.872;5.306;2022-07-29T11:01:52;101277.53;;;24.49;58.56
25238;BME280;13185;50.872;5.306;2022-07-29T11:07:08;101278.59;;;24.71;57.04
25238;BME280;13185;50.872;5.306;2022-07-29T11:09:33;101279.47;;;24.71;57.21
25238;BME280;13185;50.872;5.306;2022-07-29T11:11:59;101276.47;;;24.81;56.71
25238;BME280;13185;50.872;5.306;2022-07-29T11:18:02;101266.66;;;25.10;56.15
25238;BME280;13185;50.872;5.306;2022-07-29T11:23:36;101270.50;;;25.23;55.53
25238;BME280;13185;50.872;5.306;2022-07-29T11:31:16;101267.25;;;25.57;54.87
25238;BME280;13185;50.872;5.306;2022-07-29T11:33:44;101277.28;;;25.50;53.22
25238;BME280;13185;50.872;5.306;2022-07-29T11:36:14;101278.31;;;25.35;52.52
25238;BME280;13185;50.872;5.306;2022-07-29T11:38:40;101280.31;;;25.18;52.52
25238;BME280;13185;50.872;5.306;2022-07-29T11:41:23;101273.72;;;25.27;53.52
25238;BME280;13185;50.872;5.306;2022-07-29T11:43:53;101280.88;;;25.36;51.67
25238;BME280;13185;50.872;5.306;2022-07-29T11:46:47;101283.22;;;25.39;50.62
25238;BME280;13185;50.872;5.306;2022-07-29T11:49:25;101282.50;;;25.45;50.49
25238;BME280;13185;50.872;5.306;2022-07-29T11:51:56;101275.38;;;25.51;50.93
25238;BME280;13185;50.872;5.306;2022-07-29T11:54:25;101273.03;;;25.62;51.44
25238;BME280;13185;50.872;5.306;2022-07-29T11:56:52;101264.34;;;25.74;51.94
25238;BME280;13185;50.872;5.306;2022-07-29T11:59:19;101264.47;;;25.95;51.81
25238;BME280;13185;50.872;5.306;2022-07-29T12:01:57;101275.09;;;25.98;51.53
25238;BME280;13185;50.872;5.306;2022-07-29T12:04:23;101265.41;;;25.87;51.33
25238;BME280;13185;50.872;5.306;2022-07-29T12:06:53;101272.03;;;25.78;52.03
25238;BME280;13185;50.872;5.306;2022-07-29T12:09:20;101259.63;;;25.82;51.28
25238;BME280;13185;50.872;5.306;2022-07-29T12:11:46;101266.66;;;25.85;49.73
25238;BME280;13185;50.872;5.306;2022-07-29T12:14:28;101267.59;;;25.92;49.65
25238;BME280;13185;50.872;5.306;2022-07-29T12:16:55;101264.91;;;26.13;48.51
25238;BME280;13185;50.872;5.306;2022-07-29T12:19:20;101259.63;;;26.27;48.66
25238;BME280;13185;50.872;5.306;2022-07-29T12:21:47;101259.28;;;26.36;47.94
25238;BME280;13185;50.872;5.306;2022-07-29T12:24:13;101254.28;;;26.40;47.59
25238;BME280;13185;50.872;5.306;2022-07-29T12:26:53;101267.63;;;26.58;48.13
25238;BME280;13185;50.872;5.306;2022-07-29T12:29:19;101259.69;;;26.48;47.00
25238;BME280;13185;50.872;5.306;2022-07-29T12:31:45;101271.41;;;26.57;47.50
25238;BME280;13185;50.872;5.306;2022-07-29T12:34:13;101276.75;;;26.80;48.47
25238;BME280;13185;50.872;5.306;2022-07-29T12:36:43;101261.38;;;27.07;46.75
25238;BME280;13185;50.872;5.306;2022-07-29T12:39:09;101269.06;;;27.11;46.43
25238;BME280;13185;50.872;5.306;2022-07-29T12:41:36;101270.78;;;27.19;47.99
25238;BME280;13185;50.872;5.306;2022-07-29T12:44:01;101270.72;;;27.33;46.73
25238;BME280;13185;50.872;5.306;2022-07-29T12:46:27;101275.06;;;27.21;46.84
25238;BME280;13185;50.872;5.306;2022-07-29T12:48:54;101276.59;;;27.02;47.10
25238;BME280;13185;50.872;5.306;2022-07-29T12:51:34;101277.41;;;26.82;47.44
25238;BME280;13185;50.872;5.306;2022-07-29T12:54:09;101273.28;;;26.71;47.18
25238;BME280;13185;50.872;5.306;2022-07-29T12:56:37;101263.53;;;26.90;46.87
25238;BME280;13185;50.872;5.306;2022-07-29T12:59:17;101269.59;;;27.28;47.48
25238;BME280;13185;50.872;5.306;2022-07-29T13:01:43;101258.19;;;27.59;45.59
25238;BME280;13185;50.872;5.306;2022-07-29T13:04:09;101264.78;;;27.86;43.37
25238;BME280;13185;50.872;5.306;2022-07-29T13:06:40;101262.50;;;28.03;42.62
25238;BME280;13185;50.872;5.306;2022-07-29T13:09:10;101268.34;;;28.21;42.20
25238;BME280;13185;50.872;5.306;2022-07-29T13:11:47;101268.63;;;28.33;41.37
25238;BME280;13185;50.872;5.306;2022-07-29T13:14:29;101263.84;;;28.61;42.48
25238;BME280;13185;50.872;5.306;2022-07-29T13:17:06;101269.91;;;28.98;42.36
25238;BME280;13185;50.872;5.306;2022-07-29T13:20:04;101258.25;;;29.22;40.35
25238;BME280;13185;50.872;5.306;2022-07-29T13:22:30;101257.81;;;28.99;39.20
25238;BME280;13185;50.872;5.306;2022-07-29T13:24:58;101263.31;;;28.92;39.71
25238;BME280;13185;50.872;5.306;2022-07-29T13:27:28;101263.72;;;28.96;39.88
25238;BME280;13185;50.872;5.306;2022-07-29T13:29:56;101252.03;;;28.87;39.63